Time;durP1;ratioP1;P1;durP2;ratioP2;P2;SDS_P1;SDS_P2;PMS_P1;PMS_P2;Temp;Humidity;BMP_temperature;BMP_pressure;BME280_temperature;BME280_humidity;BME280_pressure;Samples;Min_cycle;Max_cycle;Signal;HPM_P1;HPM_P2
2022/11/02 00:07:20;;;;;;;0.90;0.50;;;20.00;55.90;;;;;;20690840;28;20400;-73
2022/11/02 00:17:20;;;;;;;1.80;0.70;;;20.00;55.30;;;;;;20693179;28;20061;-74
2022/11/02 00:27:23;;;;;;;0.98;0.70;;;19.90;55.20;;;;;;20686510;28;20404;-73
2022/11/02 00:37:23;;;;;;;0.80;0.50;;;19.90;55.30;;;;;;20683953;28;20088;-74
2022/11/02 00:47:24;;;;;;;1.10;0.80;;;19.90;55.30;;;;;;20679011;28;20026;-74
2022/11/02 00:57:26;;;;;;;2.50;0.80;;;19.90;55.30;;;;;;20668336;28;20129;-74
2022/11/02 01:07:28;;;;;;;2.15;0.68;;;19.90;55.30;;;;;;20699578;28;20060;-74
2022/11/02 01:17:30;;;;;;;1.25;0.50;;;19.90;55.30;;;;;;20701786;28;20025;-74
2022/11/02 01:27:30;;;;;;;0.80;0.47;;;19.90;55.30;;;;;;20672795;28;20030;-74
2022/11/02 01:37:31;;;;;;;2.17;0.82;;;19.90;55.30;;;;;;20681776;28;20048;-74
2022/11/02 01:47:36;;;;;;;1.85;0.57;;;19.80;55.30;;;;;;20678665;28;20037;-74
2022/11/02 01:57:38;;;;;;;1.40;0.60;;;19.80;55.40;;;;;;20717924;28;20508;-74
2022/11/02 02:07:39;;;;;;;1.23;0.90;;;19.80;55.40;;;;;;21008583;23;20109;-72
2022/11/02 02:18:03;;;;;;;1.48;0.43;;;19.80;55.60;;;;;;20559775;28;20034;-72
2022/11/02 02:28:24;;;;;;;1.48;0.40;;;19.70;55.50;;;;;;20594282;28;20062;-72
2022/11/02 02:38:35;;;;;;;1.85;0.45;;;19.70;55.60;;;;;;20613493;28;20046;-72
2022/11/02 02:48:36;;;;;;;1.95;0.50;;;19.70;55.60;;;;;;20607468;28;20507;-72
2022/11/02 02:58:59;;;;;;;1.55;0.52;;;19.70;55.70;;;;;;20597401;28;20038;-74
2022/11/02 03:09:39;;;;;;;1.10;0.35;;;19.70;55.80;;;;;;20594807;28;20053;-74
2022/11/02 03:19:43;;;;;;;1.35;0.38;;;19.70;55.80;;;;;;20604677;28;20540;-72
2022/11/02 03:30:09;;;;;;;2.05;0.47;;;19.60;55.80;;;;;;20641421;28;20023;-72
2022/11/02 03:40:21;;;;;;;4.23;1.00;;;19.60;55.90;;;;;;20616077;28;20062;-72
2022/11/02 03:50:26;;;;;;;2.75;0.80;;;19.60;56.00;;;;;;20602284;28;20076;-72
2022/11/02 04:00:29;;;;;;;3.33;0.70;;;19.60;56.00;;;;;;20613478;28;20035;-73
2022/11/02 04:14:36;;;;;;;1.15;0.50;;;19.50;56.10;;;;;;20575743;28;20381;-74
2022/11/02 04:20:57;;;;;;;2.38;0.75;;;19.50;56.00;;;;;;20591167;28;20042;-75
2022/11/02 04:30:59;;;;;;;1.53;0.60;;;19.50;56.10;;;;;;20589717;28;20393;-74
2022/11/02 04:51:24;;;;;;;2.13;0.50;;;19.50;56.10;;;;;;20603283;28;20685;-71
2022/11/02 05:01:26;;;;;;;2.33;0.50;;;19.40;56.20;;;;;;20606794;28;20057;-71
2022/11/02 05:11:27;;;;;;;1.15;0.80;;;19.50;56.30;;;;;;20607926;28;20117;-71
2022/11/02 05:21:29;;;;;;;1.38;0.32;;;19.40;56.20;;;;;;20633286;28;20117;-70
2022/11/02 05:31:30;;;;;;;1.38;0.47;;;19.40;56.20;;;;;;20583505;28;20035;-72
2022/11/02 05:41:32;;;;;;;1.90;0.60;;;19.40;56.30;;;;;;20571862;28;20058;-73
2022/11/02 05:51:33;;;;;;;1.48;0.60;;;19.40;56.30;;;;;;20588462;28;20038;-74
2022/11/02 06:01:35;;;;;;;4.28;0.45;;;19.30;56.30;;;;;;20615925;28;20046;-71
2022/11/02 06:11:35;;;;;;;3.60;0.63;;;19.40;56.40;;;;;;20586889;28;20642;-73
2022/11/02 06:21:36;;;;;;;2.28;0.70;;;19.30;56.40;;;;;;20590082;28;20373;-74
2022/11/02 06:31:37;;;;;;;9.50;0.98;;;19.30;56.50;;;;;;20573467;28;20117;-72
2022/11/02 06:41:38;;;;;;;3.38;0.90;;;19.20;56.50;;;;;;20607507;28;20460;-72
2022/11/02 06:51:38;;;;;;;3.20;0.40;;;19.20;56.60;;;;;;20620464;28;20027;-72
2022/11/02 07:01:39;;;;;;;4.65;0.52;;;19.20;56.70;;;;;;20628368;28;20113;-72
2022/11/02 07:11:40;;;;;;;3.20;0.52;;;19.10;56.80;;;;;;20592847;28;20081;-72
2022/11/02 07:21:40;;;;;;;3.63;0.52;;;19.10;56.80;;;;;;20574446;28;20044;-72
2022/11/02 07:31:41;;;;;;;5.22;1.40;;;19.10;57.00;;;;;;20623716;28;20039;-72
2022/11/02 07:41:41;;;;;;;1.17;0.50;;;19.10;57.00;;;;;;20596132;28;20030;-73
2022/11/02 07:51:42;;;;;;;3.10;1.13;;;19.10;57.10;;;;;;20589674;28;20031;-72
2022/11/02 08:01:43;;;;;;;2.47;1.05;;;19.00;57.10;;;;;;20601534;28;20531;-73
2022/11/02 08:11:43;;;;;;;2.70;0.67;;;19.00;57.10;;;;;;20586339;28;20042;-72
2022/11/02 08:21:44;;;;;;;1.48;0.40;;;19.00;57.10;;;;;;20578068;28;20035;-72
2022/11/02 08:31:44;;;;;;;4.80;0.65;;;19.00;57.20;;;;;;20606951;28;20023;-72
2022/11/02 08:41:45;;;;;;;4.17;1.20;;;19.00;57.30;;;;;;20607041;28;20056;-73
2022/11/02 08:51:46;;;;;;;2.30;0.70;;;19.00;57.30;;;;;;20614009;28;20022;-73
2022/11/02 09:01:47;;;;;;;3.28;0.60;;;19.00;57.30;;;;;;20608957;28;20039;-74
2022/11/02 09:11:49;;;;;;;1.48;0.50;;;18.90;57.90;;;;;;20640579;28;20789;-72
2022/11/02 09:21:50;;;;;;;2.78;0.82;;;18.90;57.30;;;;;;20599992;28;20058;-73
2022/11/02 09:31:50;;;;;;;1.05;0.40;;;18.90;57.40;;;;;;20635787;28;20038;-73
2022/11/02 09:42:16;;;;;;;2.38;0.80;;;18.90;57.50;;;;;;20614125;28;20047;-73
2022/11/02 09:52:23;;;;;;;2.60;1.00;;;18.80;57.60;;;;;;20615358;28;20062;-73
2022/11/02 10:03:02;;;;;;;3.38;0.80;;;18.80;57.70;;;;;;20626951;28;20600;-73
2022/11/02 10:13:16;;;;;;;5.80;1.27;;;18.80;57.70;;;;;;20651596;28;20448;-73
2022/11/02 10:23:28;;;;;;;4.80;0.90;;;18.70;57.40;;;;;;20635063;28;20038;-73
2022/11/02 10:33:29;;;;;;;3.13;1.00;;;18.70;57.20;;;;;;20647527;28;20396;-73
2022/11/02 10:43:37;;;;;;;5.10;0.90;;;18.70;57.10;;;;;;20615002;28;20092;-73
2022/11/02 10:53:39;;;;;;;4.70;0.65;;;18.70;57.00;;;;;;20607521;28;20041;-74
2022/11/02 11:03:54;;;;;;;4.07;0.63;;;18.70;56.90;;;;;;20611661;28;20026;-74
2022/11/02 11:14:01;;;;;;;4.53;1.17;;;18.80;56.70;;;;;;20599623;28;20060;-74
2022/11/02 11:24:19;;;;;;;3.33;0.52;;;18.80;56.40;;;;;;20591726;28;20459;-74
2022/11/02 11:34:23;;;;;;;5.20;0.98;;;18.70;55.90;;;;;;20611922;28;20092;-73
2022/11/02 11:44:24;;;;;;;3.38;0.80;;;18.70;55.60;;;;;;20595335;28;20417;-74
2022/11/02 11:54:28;;;;;;;3.33;0.70;;;18.70;55.40;;;;;;20598559;28;20109;-74
2022/11/02 12:04:35;;;;;;;1.00;0.57;;;18.80;55.20;;;;;;20640560;28;20100;-77
2022/11/02 12:14:54;;;;;;;3.25;1.10;;;18.80;54.70;;;;;;20587319;28;20042;-74
2022/11/02 12:25:06;;;;;;;3.88;0.85;;;18.80;54.00;;;;;;20619153;28;20033;-70
2022/11/02 12:35:31;;;;;;;2.95;0.68;;;18.90;53.30;;;;;;20638073;28;20035;-72
2022/11/02 12:45:43;;;;;;;1.05;0.60;;;19.00;52.40;;;;;;20603490;28;20030;-73
2022/11/02 12:55:45;;;;;;;5.63;0.90;;;19.00;52.00;;;;;;20599373;28;20026;-74
2022/11/02 13:05:49;;;;;;;4.53;0.82;;;19.00;51.90;;;;;;20591540;28;20114;-72
2022/11/02 13:15:49;;;;;;;3.47;0.88;;;19.10;51.60;;;;;;20601631;28;20034;-73
2022/11/02 13:25:58;;;;;;;3.03;0.90;;;19.10;51.70;;;;;;20578433;28;20634;-71
2022/11/02 13:35:59;;;;;;;3.22;0.90;;;19.10;51.60;;;;;;20599883;28;20368;-72
2022/11/02 13:46:07;;;;;;;4.90;1.42;;;19.10;51.60;;;;;;20598298;28;20026;-70
2022/11/02 13:56:10;;;;;;;3.45;0.60;;;19.10;51.70;;;;;;20614540;28;20062;-71
2022/11/02 14:06:12;;;;;;;5.93;0.77;;;19.10;51.60;;;;;;20598510;28;20485;-71
2022/11/02 14:16:45;;;;;;;4.22;0.80;;;19.00;51.70;;;;;;20603427;28;20031;-72
2022/11/02 14:26:53;;;;;;;3.28;1.00;;;19.10;52.00;;;;;;20602661;28;20117;-72
2022/11/02 14:37:25;;;;;;;4.60;0.70;;;19.00;52.00;;;;;;20624827;28;20093;-71
2022/11/02 14:47:27;;;;;;;2.38;0.50;;;19.00;52.00;;;;;;20626017;28;20034;-70
2022/11/02 14:57:35;;;;;;;1.70;0.65;;;19.00;51.80;;;;;;20598094;28;20047;-74
2022/11/02 15:07:58;;;;;;;2.17;0.60;;;19.00;51.70;;;;;;20605760;28;20038;-71
2022/11/02 15:18:17;;;;;;;1.33;0.45;;;19.00;52.00;;;;;;20596253;28;20039;-72
2022/11/02 15:28:21;;;;;;;1.55;0.32;;;18.90;52.20;;;;;;20611478;28;20062;-75
2022/11/02 15:38:26;;;;;;;2.83;0.68;;;18.90;52.60;;;;;;20587450;28;20389;-74
2022/11/02 15:48:29;;;;;;;1.17;0.70;;;18.90;52.70;;;;;;20596409;28;20030;-73
2022/11/02 15:58:49;;;;;;;2.53;0.82;;;18.90;53.00;;;;;;20593938;28;20376;-73
2022/11/02 16:08:49;;;;;;;3.00;0.82;;;18.90;53.30;;;;;;20631765;28;20079;-73
2022/11/02 16:18:51;;;;;;;5.38;0.90;;;18.80;53.40;;;;;;20594225;28;20038;-73
2022/11/02 16:29:15;;;;;;;1.98;0.63;;;18.80;53.60;;;;;;20600737;28;20031;-74
2022/11/02 16:39:33;;;;;;;3.17;0.70;;;18.80;53.70;;;;;;20614310;28;20062;-73
2022/11/02 16:49:54;;;;;;;0.85;0.40;;;18.70;53.90;;;;;;20596617;28;20034;-72
2022/11/02 17:00:06;;;;;;;1.25;0.40;;;18.70;54.00;;;;;;20585729;28;20052;-73
2022/11/02 17:10:07;;;;;;;6.13;0.75;;;18.70;54.10;;;;;;20579230;28;20030;-75
2022/11/02 17:20:14;;;;;;;2.22;0.90;;;18.60;54.30;;;;;;20590477;28;20133;-71
2022/11/02 17:30:34;;;;;;;3.60;0.60;;;18.60;54.40;;;;;;20634897;28;20038;-71
2022/11/02 17:40:36;;;;;;;4.32;1.13;;;18.60;54.40;;;;;;20599672;28;20189;-74
2022/11/02 17:50:37;;;;;;;1.67;0.80;;;18.60;54.50;;;;;;20609968;28;20054;-74
2022/11/02 18:00:38;;;;;;;1.25;0.80;;;18.60;54.60;;;;;;20602490;28;20125;-76
2022/11/02 18:10:40;;;;;;;2.83;0.77;;;18.50;54.60;;;;;;20591068;28;20126;-74
2022/11/02 18:20:41;;;;;;;1.90;0.68;;;18.50;54.70;;;;;;20600420;28;20045;-73
2022/11/02 18:30:43;;;;;;;1.60;0.70;;;18.50;54.70;;;;;;20595900;28;20050;-73
2022/11/02 18:40:43;;;;;;;3.08;0.90;;;18.40;54.70;;;;;;20599679;28;20042;-73
2022/11/02 18:50:44;;;;;;;2.23;0.60;;;18.40;54.80;;;;;;20601291;28;20526;-72
2022/11/02 19:00:44;;;;;;;3.97;0.75;;;18.30;55.40;;;;;;20623471;28;20042;-72
2022/11/02 19:10:46;;;;;;;2.25;0.50;;;18.30;54.70;;;;;;20610899;28;20121;-73
2022/11/02 19:20:46;;;;;;;4.03;1.15;;;18.30;54.80;;;;;;20589777;28;20484;-73
2022/11/02 19:30:48;;;;;;;1.58;0.80;;;18.30;54.80;;;;;;20631709;28;20023;-72
2022/11/02 19:41:01;;;;;;;1.08;0.80;;;18.20;54.80;;;;;;20612588;28;20042;-72
2022/11/02 19:51:19;;;;;;;1.75;0.68;;;18.30;54.80;;;;;;20614279;28;20045;-73
2022/11/02 20:01:21;;;;;;;1.98;0.70;;;18.20;54.80;;;;;;20576993;28;20030;-71
2022/11/02 20:11:23;;;;;;;2.40;0.98;;;18.20;55.50;;;;;;20617189;28;20108;-75
2022/11/02 20:21:28;;;;;;;2.97;1.08;;;18.10;54.70;;;;;;20595031;28;20564;-74
2022/11/02 20:31:33;;;;;;;2.10;1.00;;;18.10;54.80;;;;;;20601766;28;20276;-74
2022/11/02 20:41:34;;;;;;;2.50;1.00;;;18.10;54.80;;;;;;20617496;28;20113;-75
2022/11/02 20:51:35;;;;;;;1.27;0.73;;;18.10;54.90;;;;;;20615926;28;20069;-74
2022/11/02 21:01:36;;;;;;;2.40;1.05;;;18.10;54.90;;;;;;20605252;28;20492;-74
2022/11/02 21:21:56;;;;;;;2.47;0.93;;;18.00;55.00;;;;;;20647985;28;20048;-74
2022/11/02 21:31:58;;;;;;;2.60;0.90;;;18.00;55.00;;;;;;20593511;28;20119;-74
2022/11/02 21:41:59;;;;;;;1.25;0.90;;;18.00;55.00;;;;;;20623444;28;20481;-74
2022/11/02 21:51:59;;;;;;;1.10;0.68;;;18.00;55.00;;;;;;20601259;28;20045;-74
2022/11/02 22:02:00;;;;;;;4.93;1.00;;;18.00;55.10;;;;;;20596390;28;20048;-74
2022/11/02 22:22:31;;;;;;;2.28;1.13;;;17.90;55.00;;;;;;20569812;28;20061;-75
2022/11/02 22:32:31;;;;;;;2.58;0.90;;;17.90;54.90;;;;;;20607847;28;20480;-74
2022/11/02 22:42:32;;;;;;;2.50;1.08;;;17.90;54.90;;;;;;20603471;28;20039;-74
2022/11/02 22:52:33;;;;;;;2.95;1.00;;;17.90;55.00;;;;;;20616376;28;20069;-74
2022/11/02 23:02:34;;;;;;;2.95;0.95;;;17.80;54.90;;;;;;20614481;28;20043;-74
2022/11/02 23:12:35;;;;;;;1.15;0.60;;;17.80;54.90;;;;;;20604577;28;20038;-74
2022/11/02 23:32:36;;;;;;;2.20;1.05;;;17.70;54.90;;;;;;20613373;28;20023;-74
2022/11/02 23:42:36;;;;;;;5.38;1.00;;;17.70;54.80;;;;;;20601539;28;20039;-74
